sensor_id;sensor_type;location;lat;lon;timestamp;P1;durP1;ratioP1;P2;durP2;ratioP2
16766;SDS011;8501;49.926;8.404;2023-06-26T00:02:19;9.20;;;7.70;;
16766;SDS011;8501;49.926;8.404;2023-06-26T00:04:45;8.50;;;7.60;;
16766;SDS011;8501;49.926;8.404;2023-06-26T00:07:10;10.93;;;8.20;;
16766;SDS011;8501;49.926;8.404;2023-06-26T00:09:36;11.55;;;8.50;;
16766;SDS011;8501;49.926;8.404;2023-06-26T00:12:02;11.38;;;8.23;;
16766;SDS011;8501;49.926;8.404;2023-06-26T00:14:28;10.10;;;8.23;;
16766;SDS011;8501;49.926;8.404;2023-06-26T00:16:53;10.80;;;8.15;;
16766;SDS011;8501;49.926;8.404;2023-06-26T00:19:19;10.38;;;8.05;;
16766;SDS011;8501;49.926;8.404;2023-06-26T00:21:44;9.55;;;8.13;;
16766;SDS011;8501;49.926;8.404;2023-06-26T00:24:13;10.48;;;8.00;;
16766;SDS011;8501;49.926;8.404;2023-06-26T00:26:39;10.98;;;8.50;;
16766;SDS011;8501;49.926;8.404;2023-06-26T00:29:05;11.05;;;8.23;;
16766;SDS011;8501;49.926;8.404;2023-06-26T00:31:30;11.70;;;8.25;;
16766;SDS011;8501;49.926;8.404;2023-06-26T00:33:56;10.88;;;8.32;;
16766;SDS011;8501;49.926;8.404;2023-06-26T00:36:22;9.52;;;7.55;;
16766;SDS011;8501;49.926;8.404;2023-06-26T00:38:51;9.18;;;7.75;;
16766;SDS011;8501;49.926;8.404;2023-06-26T00:41:16;11.70;;;8.50;;
16766;SDS011;8501;49.926;8.404;2023-06-26T00:43:42;10.25;;;8.30;;
16766;SDS011;8501;49.926;8.404;2023-06-26T00:46:08;10.80;;;7.93;;
16766;SDS011;8501;49.926;8.404;2023-06-26T00:48:35;9.75;;;7.93;;
16766;SDS011;8501;49.926;8.404;2023-06-26T00:51:01;10.48;;;8.65;;
16766;SDS011;8501;49.926;8.404;2023-06-26T00:53:27;11.05;;;8.32;;
16766;SDS011;8501;49.926;8.404;2023-06-26T00:55:53;9.70;;;8.00;;
16766;SDS011;8501;49.926;8.404;2023-06-26T00:58:19;9.43;;;7.95;;
16766;SDS011;8501;49.926;8.404;2023-06-26T01:00:48;11.63;;;8.40;;
16766;SDS011;8501;49.926;8.404;2023-06-26T01:03:14;11.02;;;8.63;;
16766;SDS011;8501;49.926;8.404;2023-06-26T01:05:40;9.75;;;8.35;;
16766;SDS011;8501;49.926;8.404;2023-06-26T01:08:05;9.52;;;8.13;;
16766;SDS011;8501;49.926;8.404;2023-06-26T01:10:32;10.90;;;8.60;;
16766;SDS011;8501;49.926;8.404;2023-06-26T01:12:58;11.05;;;8.70;;
16766;SDS011;8501;49.926;8.404;2023-06-26T01:15:23;11.30;;;8.45;;
16766;SDS011;8501;49.926;8.404;2023-06-26T01:17:49;9.95;;;8.13;;
16766;SDS011;8501;49.926;8.404;2023-06-26T01:20:16;10.52;;;8.48;;
16766;SDS011;8501;49.926;8.404;2023-06-26T01:28:36;11.20;;;8.45;;
16766;SDS011;8501;49.926;8.404;2023-06-26T01:31:05;11.65;;;8.88;;
16766;SDS011;8501;49.926;8.404;2023-06-26T01:33:32;12.55;;;8.88;;
16766;SDS011;8501;49.926;8.404;2023-06-26T01:35:58;10.05;;;7.95;;
16766;SDS011;8501;49.926;8.404;2023-06-26T01:38:24;11.52;;;8.65;;
16766;SDS011;8501;49.926;8.404;2023-06-26T01:40:51;9.85;;;8.23;;
16766;SDS011;8501;49.926;8.404;2023-06-26T01:43:24;11.38;;;8.27;;
16766;SDS011;8501;49.926;8.404;2023-06-26T01:45:55;11.02;;;8.38;;
16766;SDS011;8501;49.926;8.404;2023-06-26T01:48:25;12.35;;;8.35;;
16766;SDS011;8501;49.926;8.404;2023-06-26T01:51:05;11.10;;;8.63;;
16766;SDS011;8501;49.926;8.404;2023-06-26T01:53:35;9.35;;;7.95;;
16766;SDS011;8501;49.926;8.404;2023-06-26T01:56:07;12.88;;;7.93;;
16766;SDS011;8501;49.926;8.404;2023-06-26T01:58:40;9.82;;;7.63;;
16766;SDS011;8501;49.926;8.404;2023-06-26T02:01:24;9.43;;;7.85;;
16766;SDS011;8501;49.926;8.404;2023-06-26T02:03:50;9.02;;;7.97;;
16766;SDS011;8501;49.926;8.404;2023-06-26T02:06:15;10.80;;;7.88;;
16766;SDS011;8501;49.926;8.404;2023-06-26T02:08:41;12.13;;;8.68;;
16766;SDS011;8501;49.926;8.404;2023-06-26T02:11:07;10.40;;;7.45;;
16766;SDS011;8501;49.926;8.404;2023-06-26T02:13:32;13.13;;;8.25;;
16766;SDS011;8501;49.926;8.404;2023-06-26T02:15:58;10.38;;;8.07;;
16766;SDS011;8501;49.926;8.404;2023-06-26T02:18:23;11.73;;;8.93;;
16766;SDS011;8501;49.926;8.404;2023-06-26T02:20:49;10.88;;;8.45;;
16766;SDS011;8501;49.926;8.404;2023-06-26T02:23:15;11.20;;;9.10;;
16766;SDS011;8501;49.926;8.404;2023-06-26T02:25:41;11.52;;;9.25;;
16766;SDS011;8501;49.926;8.404;2023-06-26T02:28:06;13.45;;;9.00;;
16766;SDS011;8501;49.926;8.404;2023-06-26T02:30:32;10.20;;;8.70;;
16766;SDS011;8501;49.926;8.404;2023-06-26T02:32:57;14.35;;;8.82;;
16766;SDS011;8501;49.926;8.404;2023-06-26T02:35:23;10.57;;;9.00;;
16766;SDS011;8501;49.926;8.404;2023-06-26T02:37:48;12.90;;;9.05;;
16766;SDS011;8501;49.926;8.404;2023-06-26T02:40:14;12.93;;;9.20;;
16766;SDS011;8501;49.926;8.404;2023-06-26T02:42:39;11.45;;;8.85;;
16766;SDS011;8501;49.926;8.404;2023-06-26T02:45:05;12.05;;;9.43;;
16766;SDS011;8501;49.926;8.404;2023-06-26T02:47:31;14.80;;;10.02;;
16766;SDS011;8501;49.926;8.404;2023-06-26T02:49:57;13.55;;;10.05;;
16766;SDS011;8501;49.926;8.404;2023-06-26T02:52:22;13.43;;;10.48;;
16766;SDS011;8501;49.926;8.404;2023-06-26T02:54:48;12.93;;;9.90;;
16766;SDS011;8501;49.926;8.404;2023-06-26T02:57:13;14.55;;;10.40;;
16766;SDS011;8501;49.926;8.404;2023-06-26T02:59:39;12.60;;;9.93;;
16766;SDS011;8501;49.926;8.404;2023-06-26T03:02:05;12.27;;;10.00;;
16766;SDS011;8501;49.926;8.404;2023-06-26T03:04:31;13.63;;;10.52;;
16766;SDS011;8501;49.926;8.404;2023-06-26T03:06:56;11.50;;;10.15;;
16766;SDS011;8501;49.926;8.404;2023-06-26T03:09:22;11.45;;;9.98;;
16766;SDS011;8501;49.926;8.404;2023-06-26T03:11:47;13.23;;;10.27;;
16766;SDS011;8501;49.926;8.404;2023-06-26T03:14:13;13.13;;;9.63;;
16766;SDS011;8501;49.926;8.404;2023-06-26T03:16:39;12.40;;;9.80;;
16766;SDS011;8501;49.926;8.404;2023-06-26T03:19:05;13.02;;;10.23;;
16766;SDS011;8501;49.926;8.404;2023-06-26T03:21:31;13.48;;;9.85;;
16766;SDS011;8501;49.926;8.404;2023-06-26T03:23:57;13.45;;;10.20;;
16766;SDS011;8501;49.926;8.404;2023-06-26T03:26:23;13.15;;;9.52;;
16766;SDS011;8501;49.926;8.404;2023-06-26T03:28:52;11.45;;;9.18;;
16766;SDS011;8501;49.926;8.404;2023-06-26T03:31:18;11.43;;;8.63;;
16766;SDS011;8501;49.926;8.404;2023-06-26T03:33:44;10.98;;;9.02;;
16766;SDS011;8501;49.926;8.404;2023-06-26T03:36:09;14.10;;;10.32;;
16766;SDS011;8501;49.926;8.404;2023-06-26T03:38:35;13.60;;;9.25;;
16766;SDS011;8501;49.926;8.404;2023-06-26T03:41:00;12.35;;;9.27;;
16766;SDS011;8501;49.926;8.404;2023-06-26T03:43:26;10.73;;;8.75;;
16766;SDS011;8501;49.926;8.404;2023-06-26T03:45:51;13.25;;;9.52;;
16766;SDS011;8501;49.926;8.404;2023-06-26T03:48:17;12.52;;;9.10;;
16766;SDS011;8501;49.926;8.404;2023-06-26T03:50:42;11.45;;;8.82;;
16766;SDS011;8501;49.926;8.404;2023-06-26T03:53:08;11.95;;;9.45;;
16766;SDS011;8501;49.926;8.404;2023-06-26T03:55:34;15.60;;;9.23;;
16766;SDS011;8501;49.926;8.404;2023-06-26T03:58:00;13.02;;;9.13;;
16766;SDS011;8501;49.926;8.404;2023-06-26T04:00:25;13.25;;;8.75;;
16766;SDS011;8501;49.926;8.404;2023-06-26T04:02:51;12.65;;;9.05;;
16766;SDS011;8501;49.926;8.404;2023-06-26T04:05:16;12.15;;;8.30;;
16766;SDS011;8501;49.926;8.404;2023-06-26T04:07:42;11.13;;;9.15;;
16766;SDS011;8501;49.926;8.404;2023-06-26T04:10:08;13.07;;;8.75;;
16766;SDS011;8501;49.926;8.404;2023-06-26T04:12:34;14.90;;;8.77;;
16766;SDS011;8501;49.926;8.404;2023-06-26T04:14:59;14.15;;;9.48;;
16766;SDS011;8501;49.926;8.404;2023-06-26T04:17:25;11.35;;;9.45;;
16766;SDS011;8501;49.926;8.404;2023-06-26T04:19:50;11.93;;;9.50;;
16766;SDS011;8501;49.926;8.404;2023-06-26T04:22:16;12.98;;;9.43;;
16766;SDS011;8501;49.926;8.404;2023-06-26T04:24:41;13.98;;;10.13;;
16766;SDS011;8501;49.926;8.404;2023-06-26T04:27:08;10.73;;;9.02;;
16766;SDS011;8501;49.926;8.404;2023-06-26T04:29:34;13.00;;;9.40;;
16766;SDS011;8501;49.926;8.404;2023-06-26T04:31:59;12.93;;;9.43;;
16766;SDS011;8501;49.926;8.404;2023-06-26T04:34:25;12.15;;;9.30;;
16766;SDS011;8501;49.926;8.404;2023-06-26T04:37:00;10.23;;;8.65;;
16766;SDS011;8501;49.926;8.404;2023-06-26T04:39:25;10.95;;;8.43;;
16766;SDS011;8501;49.926;8.404;2023-06-26T04:41:51;11.70;;;8.23;;
16766;SDS011;8501;49.926;8.404;2023-06-26T04:44:17;10.10;;;8.32;;
16766;SDS011;8501;49.926;8.404;2023-06-26T04:46:43;11.77;;;8.32;;
16766;SDS011;8501;49.926;8.404;2023-06-26T04:49:08;11.05;;;8.13;;
16766;SDS011;8501;49.926;8.404;2023-06-26T04:51:34;13.32;;;8.20;;
16766;SDS011;8501;49.926;8.404;2023-06-26T04:54:05;11.13;;;8.30;;
16766;SDS011;8501;49.926;8.404;2023-06-26T04:56:31;10.82;;;8.60;;
16766;SDS011;8501;49.926;8.404;2023-06-26T04:58:57;11.00;;;7.90;;
16766;SDS011;8501;49.926;8.404;2023-06-26T05:01:22;10.55;;;8.52;;
16766;SDS011;8501;49.926;8.404;2023-06-26T05:03:48;9.98;;;7.80;;
16766;SDS011;8501;49.926;8.404;2023-06-26T05:06:14;10.40;;;8.52;;
16766;SDS011;8501;49.926;8.404;2023-06-26T05:08:39;10.60;;;8.60;;
16766;SDS011;8501;49.926;8.404;2023-06-26T05:11:05;11.27;;;8.25;;
16766;SDS011;8501;49.926;8.404;2023-06-26T05:13:30;10.68;;;8.82;;
16766;SDS011;8501;49.926;8.404;2023-06-26T05:15:56;14.10;;;9.35;;
16766;SDS011;8501;49.926;8.404;2023-06-26T05:18:21;12.93;;;9.20;;
16766;SDS011;8501;49.926;8.404;2023-06-26T05:20:47;11.40;;;9.07;;
16766;SDS011;8501;49.926;8.404;2023-06-26T05:23:13;10.90;;;8.63;;
16766;SDS011;8501;49.926;8.404;2023-06-26T05:25:39;11.15;;;8.75;;
16766;SDS011;8501;49.926;8.404;2023-06-26T05:28:05;11.00;;;8.52;;
16766;SDS011;8501;49.926;8.404;2023-06-26T05:30:31;13.13;;;8.48;;
16766;SDS011;8501;49.926;8.404;2023-06-26T05:33:00;12.05;;;8.93;;
16766;SDS011;8501;49.926;8.404;2023-06-26T05:35:27;11.00;;;8.45;;
16766;SDS011;8501;49.926;8.404;2023-06-26T05:37:57;13.30;;;8.80;;
16766;SDS011;8501;49.926;8.404;2023-06-26T05:40:23;15.88;;;9.13;;
16766;SDS011;8501;49.926;8.404;2023-06-26T05:42:49;11.55;;;8.95;;
16766;SDS011;8501;49.926;8.404;2023-06-26T05:45:15;13.18;;;8.75;;
16766;SDS011;8501;49.926;8.404;2023-06-26T05:47:41;12.90;;;8.43;;
16766;SDS011;8501;49.926;8.404;2023-06-26T05:50:07;12.30;;;8.50;;
16766;SDS011;8501;49.926;8.404;2023-06-26T05:52:34;9.90;;;8.25;;
16766;SDS011;8501;49.926;8.404;2023-06-26T05:55:01;12.32;;;8.77;;
16766;SDS011;8501;49.926;8.404;2023-06-26T05:57:28;12.13;;;8.60;;
16766;SDS011;8501;49.926;8.404;2023-06-26T05:59:54;14.13;;;8.80;;
16766;SDS011;8501;49.926;8.404;2023-06-26T06:02:20;12.50;;;9.75;;
16766;SDS011;8501;49.926;8.404;2023-06-26T06:04:46;11.55;;;9.07;;
16766;SDS011;8501;49.926;8.404;2023-06-26T06:07:11;11.55;;;8.95;;
16766;SDS011;8501;49.926;8.404;2023-06-26T06:09:37;13.25;;;9.18;;
16766;SDS011;8501;49.926;8.404;2023-06-26T06:12:04;12.52;;;9.05;;
16766;SDS011;8501;49.926;8.404;2023-06-26T06:14:31;10.75;;;8.85;;
16766;SDS011;8501;49.926;8.404;2023-06-26T06:16:57;10.55;;;8.90;;
16766;SDS011;8501;49.926;8.404;2023-06-26T06:19:22;14.93;;;8.75;;
16766;SDS011;8501;49.926;8.404;2023-06-26T06:21:48;13.95;;;8.95;;
16766;SDS011;8501;49.926;8.404;2023-06-26T06:24:13;13.15;;;9.85;;
16766;SDS011;8501;49.926;8.404;2023-06-26T06:26:39;12.38;;;9.55;;
16766;SDS011;8501;49.926;8.404;2023-06-26T06:29:04;12.57;;;8.60;;
16766;SDS011;8501;49.926;8.404;2023-06-26T06:31:30;12.98;;;9.20;;
16766;SDS011;8501;49.926;8.404;2023-06-26T06:33:56;11.30;;;9.35;;
16766;SDS011;8501;49.926;8.404;2023-06-26T06:36:22;13.63;;;9.25;;
16766;SDS011;8501;49.926;8.404;2023-06-26T06:38:47;13.82;;;9.10;;
16766;SDS011;8501;49.926;8.404;2023-06-26T06:41:13;10.80;;;8.77;;
16766;SDS011;8501;49.926;8.404;2023-06-26T06:43:38;12.35;;;9.30;;
16766;SDS011;8501;49.926;8.404;2023-06-26T06:46:04;11.38;;;9.43;;
16766;SDS011;8501;49.926;8.404;2023-06-26T06:48:30;11.70;;;9.18;;
16766;SDS011;8501;49.926;8.404;2023-06-26T06:50:56;12.52;;;9.75;;
16766;SDS011;8501;49.926;8.404;2023-06-26T06:53:22;14.52;;;10.13;;
16766;SDS011;8501;49.926;8.404;2023-06-26T06:55:48;13.82;;;9.43;;
16766;SDS011;8501;49.926;8.404;2023-06-26T06:58:14;12.10;;;9.15;;
16766;SDS011;8501;49.926;8.404;2023-06-26T07:00:41;15.38;;;9.40;;
16766;SDS011;8501;49.926;8.404;2023-06-26T07:03:07;13.25;;;9.93;;
16766;SDS011;8501;49.926;8.404;2023-06-26T07:05:32;12.80;;;10.00;;
16766;SDS011;8501;49.926;8.404;2023-06-26T07:07:58;13.38;;;10.13;;
16766;SDS011;8501;49.926;8.404;2023-06-26T07:10:23;12.93;;;10.07;;
16766;SDS011;8501;49.926;8.404;2023-06-26T07:12:49;12.68;;;9.45;;
16766;SDS011;8501;49.926;8.404;2023-06-26T07:15:14;12.70;;;10.45;;
16766;SDS011;8501;49.926;8.404;2023-06-26T07:17:40;13.73;;;10.55;;
16766;SDS011;8501;49.926;8.404;2023-06-26T07:20:05;12.82;;;9.57;;
16766;SDS011;8501;49.926;8.404;2023-06-26T07:22:32;15.73;;;9.75;;
16766;SDS011;8501;49.926;8.404;2023-06-26T07:24:58;13.95;;;10.07;;
16766;SDS011;8501;49.926;8.404;2023-06-26T07:27:24;15.23;;;10.10;;
16766;SDS011;8501;49.926;8.404;2023-06-26T07:29:49;12.73;;;9.13;;
16766;SDS011;8501;49.926;8.404;2023-06-26T07:32:15;13.15;;;9.70;;
16766;SDS011;8501;49.926;8.404;2023-06-26T07:34:40;12.52;;;9.35;;
16766;SDS011;8501;49.926;8.404;2023-06-26T07:37:06;15.43;;;9.70;;
16766;SDS011;8501;49.926;8.404;2023-06-26T07:39:32;10.18;;;8.75;;
16766;SDS011;8501;49.926;8.404;2023-06-26T07:41:58;12.60;;;9.38;;
16766;SDS011;8501;49.926;8.404;2023-06-26T07:44:24;12.18;;;9.60;;
16766;SDS011;8501;49.926;8.404;2023-06-26T07:46:50;13.32;;;9.38;;
16766;SDS011;8501;49.926;8.404;2023-06-26T07:49:15;13.48;;;9.45;;
16766;SDS011;8501;49.926;8.404;2023-06-26T07:51:41;12.85;;;9.70;;
16766;SDS011;8501;49.926;8.404;2023-06-26T07:54:06;14.70;;;9.52;;
16766;SDS011;8501;49.926;8.404;2023-06-26T07:56:35;13.23;;;9.20;;
16766;SDS011;8501;49.926;8.404;2023-06-26T07:59:18;11.45;;;9.40;;
16766;SDS011;8501;49.926;8.404;2023-06-26T08:01:43;10.93;;;9.15;;
16766;SDS011;8501;49.926;8.404;2023-06-26T08:04:09;13.02;;;9.38;;
16766;SDS011;8501;49.926;8.404;2023-06-26T08:06:36;9.95;;;7.75;;
16766;SDS011;8501;49.926;8.404;2023-06-26T08:09:05;9.70;;;8.32;;
16766;SDS011;8501;49.926;8.404;2023-06-26T08:11:32;8.93;;;7.38;;
16766;SDS011;8501;49.926;8.404;2023-06-26T08:13:58;9.48;;;7.00;;
16766;SDS011;8501;49.926;8.404;2023-06-26T08:16:24;9.20;;;7.40;;
16766;SDS011;8501;49.926;8.404;2023-06-26T08:18:49;10.25;;;7.63;;
16766;SDS011;8501;49.926;8.404;2023-06-26T08:21:15;8.90;;;7.25;;
16766;SDS011;8501;49.926;8.404;2023-06-26T08:23:40;8.73;;;7.30;;
16766;SDS011;8501;49.926;8.404;2023-06-26T08:26:06;10.75;;;7.38;;
16766;SDS011;8501;49.926;8.404;2023-06-26T08:28:31;9.85;;;7.50;;
16766;SDS011;8501;49.926;8.404;2023-06-26T08:30:57;8.52;;;7.20;;
16766;SDS011;8501;49.926;8.404;2023-06-26T08:33:22;8.50;;;7.13;;
16766;SDS011;8501;49.926;8.404;2023-06-26T08:35:48;9.43;;;6.97;;
16766;SDS011;8501;49.926;8.404;2023-06-26T08:38:15;9.80;;;7.05;;
16766;SDS011;8501;49.926;8.404;2023-06-26T08:40:40;8.20;;;7.00;;
16766;SDS011;8501;49.926;8.404;2023-06-26T08:43:06;9.88;;;7.38;;
16766;SDS011;8501;49.926;8.404;2023-06-26T08:45:31;10.40;;;7.30;;
16766;SDS011;8501;49.926;8.404;2023-06-26T08:47:58;9.35;;;7.68;;
16766;SDS011;8501;49.926;8.404;2023-06-26T08:50:25;11.57;;;7.70;;
16766;SDS011;8501;49.926;8.404;2023-06-26T08:53:04;8.20;;;6.72;;
16766;SDS011;8501;49.926;8.404;2023-06-26T08:55:45;12.88;;;8.02;;
16766;SDS011;8501;49.926;8.404;2023-06-26T08:58:11;11.57;;;7.80;;
16766;SDS011;8501;49.926;8.404;2023-06-26T09:00:37;9.00;;;7.28;;
16766;SDS011;8501;49.926;8.404;2023-06-26T09:03:03;11.43;;;7.47;;
16766;SDS011;8501;49.926;8.404;2023-06-26T09:05:29;10.25;;;7.53;;
16766;SDS011;8501;49.926;8.404;2023-06-26T09:07:58;8.15;;;7.28;;
16766;SDS011;8501;49.926;8.404;2023-06-26T09:10:24;9.65;;;7.13;;
16766;SDS011;8501;49.926;8.404;2023-06-26T09:12:49;8.73;;;7.00;;
16766;SDS011;8501;49.926;8.404;2023-06-26T09:15:15;7.97;;;7.10;;
16766;SDS011;8501;49.926;8.404;2023-06-26T09:17:44;9.35;;;7.05;;
16766;SDS011;8501;49.926;8.404;2023-06-26T09:20:09;7.93;;;6.90;;
16766;SDS011;8501;49.926;8.404;2023-06-26T09:22:36;7.65;;;6.75;;
16766;SDS011;8501;49.926;8.404;2023-06-26T09:25:06;12.82;;;7.50;;
16766;SDS011;8501;49.926;8.404;2023-06-26T09:27:32;7.72;;;6.93;;
16766;SDS011;8501;49.926;8.404;2023-06-26T09:29:59;9.23;;;6.93;;
16766;SDS011;8501;49.926;8.404;2023-06-26T09:32:24;8.85;;;7.25;;
16766;SDS011;8501;49.926;8.404;2023-06-26T09:34:51;9.00;;;7.05;;
16766;SDS011;8501;49.926;8.404;2023-06-26T09:37:18;7.60;;;6.80;;
16766;SDS011;8501;49.926;8.404;2023-06-26T09:39:44;8.38;;;7.55;;
16766;SDS011;8501;49.926;8.404;2023-06-26T09:42:10;7.55;;;6.53;;
16766;SDS011;8501;49.926;8.404;2023-06-26T09:44:43;8.05;;;7.25;;
16766;SDS011;8501;49.926;8.404;2023-06-26T09:47:12;8.30;;;7.50;;
16766;SDS011;8501;49.926;8.404;2023-06-26T09:49:41;8.80;;;7.10;;
16766;SDS011;8501;49.926;8.404;2023-06-26T09:52:10;8.00;;;7.20;;
16766;SDS011;8501;49.926;8.404;2023-06-26T09:54:42;7.15;;;6.45;;
16766;SDS011;8501;49.926;8.404;2023-06-26T09:57:12;9.13;;;6.97;;
16766;SDS011;8501;49.926;8.404;2023-06-26T09:59:40;8.98;;;7.18;;
16766;SDS011;8501;49.926;8.404;2023-06-26T10:02:07;7.65;;;6.85;;
16766;SDS011;8501;49.926;8.404;2023-06-26T10:04:33;10.40;;;6.90;;
16766;SDS011;8501;49.926;8.404;2023-06-26T10:07:01;8.32;;;6.78;;
16766;SDS011;8501;49.926;8.404;2023-06-26T10:09:29;8.30;;;6.32;;
16766;SDS011;8501;49.926;8.404;2023-06-26T10:11:56;7.78;;;6.97;;
16766;SDS011;8501;49.926;8.404;2023-06-26T10:14:27;9.10;;;6.93;;
16766;SDS011;8501;49.926;8.404;2023-06-26T10:16:57;8.02;;;6.75;;
16766;SDS011;8501;49.926;8.404;2023-06-26T10:19:24;9.63;;;6.88;;
16766;SDS011;8501;49.926;8.404;2023-06-26T10:21:52;8.23;;;7.28;;
16766;SDS011;8501;49.926;8.404;2023-06-26T10:24:19;7.65;;;6.88;;
16766;SDS011;8501;49.926;8.404;2023-06-26T10:26:47;8.70;;;6.80;;
16766;SDS011;8501;49.926;8.404;2023-06-26T10:29:17;10.43;;;7.15;;
16766;SDS011;8501;49.926;8.404;2023-06-26T10:31:45;9.30;;;7.10;;
16766;SDS011;8501;49.926;8.404;2023-06-26T10:34:15;8.20;;;7.25;;
16766;SDS011;8501;49.926;8.404;2023-06-26T10:36:40;8.07;;;7.20;;
16766;SDS011;8501;49.926;8.404;2023-06-26T10:39:06;9.38;;;7.30;;
16766;SDS011;8501;49.926;8.404;2023-06-26T10:41:38;8.35;;;6.97;;
16766;SDS011;8501;49.926;8.404;2023-06-26T10:44:09;8.02;;;7.22;;
16766;SDS011;8501;49.926;8.404;2023-06-26T10:46:48;8.18;;;6.80;;
16766;SDS011;8501;49.926;8.404;2023-06-26T10:49:15;7.72;;;6.63;;
16766;SDS011;8501;49.926;8.404;2023-06-26T10:51:50;9.48;;;6.53;;
16766;SDS011;8501;49.926;8.404;2023-06-26T10:54:16;10.00;;;6.50;;
16766;SDS011;8501;49.926;8.404;2023-06-26T10:56:47;8.13;;;6.47;;
16766;SDS011;8501;49.926;8.404;2023-06-26T10:59:15;7.68;;;6.75;;
16766;SDS011;8501;49.926;8.404;2023-06-26T11:01:45;7.30;;;6.50;;
16766;SDS011;8501;49.926;8.404;2023-06-26T11:04:18;6.97;;;6.30;;
16766;SDS011;8501;49.926;8.404;2023-06-26T11:07:13;8.32;;;6.68;;
16766;SDS011;8501;49.926;8.404;2023-06-26T11:09:53;9.80;;;6.50;;
16766;SDS011;8501;49.926;8.404;2023-06-26T11:15:08;8.23;;;6.10;;
16766;SDS011;8501;49.926;8.404;2023-06-26T11:17:35;8.48;;;6.43;;
16766;SDS011;8501;49.926;8.404;2023-06-26T11:20:01;7.35;;;5.95;;
16766;SDS011;8501;49.926;8.404;2023-06-26T11:22:29;10.02;;;7.10;;
16766;SDS011;8501;49.926;8.404;2023-06-26T11:24:59;7.88;;;6.60;;
16766;SDS011;8501;49.926;8.404;2023-06-26T11:27:24;11.98;;;7.18;;
16766;SDS011;8501;49.926;8.404;2023-06-26T11:29:55;8.82;;;7.22;;
16766;SDS011;8501;49.926;8.404;2023-06-26T11:32:20;8.40;;;7.20;;
16766;SDS011;8501;49.926;8.404;2023-06-26T11:34:47;9.07;;;7.38;;
16766;SDS011;8501;49.926;8.404;2023-06-26T11:37:16;10.13;;;6.95;;
16766;SDS011;8501;49.926;8.404;2023-06-26T11:39:42;11.57;;;8.05;;
16766;SDS011;8501;49.926;8.404;2023-06-26T11:42:07;9.25;;;8.00;;
16766;SDS011;8501;49.926;8.404;2023-06-26T11:44:39;10.40;;;7.57;;
16766;SDS011;8501;49.926;8.404;2023-06-26T11:47:06;12.25;;;8.48;;
16766;SDS011;8501;49.926;8.404;2023-06-26T11:49:32;10.05;;;8.68;;
16766;SDS011;8501;49.926;8.404;2023-06-26T11:51:58;12.52;;;9.70;;
16766;SDS011;8501;49.926;8.404;2023-06-26T11:54:24;12.70;;;10.18;;
16766;SDS011;8501;49.926;8.404;2023-06-26T11:56:57;13.02;;;9.02;;
16766;SDS011;8501;49.926;8.404;2023-06-26T11:59:24;12.70;;;9.98;;
16766;SDS011;8501;49.926;8.404;2023-06-26T12:01:57;12.35;;;10.18;;
16766;SDS011;8501;49.926;8.404;2023-06-26T12:04:23;15.82;;;11.05;;
16766;SDS011;8501;49.926;8.404;2023-06-26T12:06:50;13.80;;;11.38;;
16766;SDS011;8501;49.926;8.404;2023-06-26T12:09:21;13.23;;;10.75;;
16766;SDS011;8501;49.926;8.404;2023-06-26T12:11:48;12.75;;;10.20;;
16766;SDS011;8501;49.926;8.404;2023-06-26T12:14:16;10.73;;;9.63;;
16766;SDS011;8501;49.926;8.404;2023-06-26T12:16:44;13.85;;;9.88;;
16766;SDS011;8501;49.926;8.404;2023-06-26T12:19:09;12.30;;;9.27;;
16766;SDS011;8501;49.926;8.404;2023-06-26T12:24:07;11.98;;;8.90;;
16766;SDS011;8501;49.926;8.404;2023-06-26T12:26:34;11.90;;;9.50;;
16766;SDS011;8501;49.926;8.404;2023-06-26T12:31:31;9.82;;;7.40;;
16766;SDS011;8501;49.926;8.404;2023-06-26T12:33:57;9.38;;;6.40;;
16766;SDS011;8501;49.926;8.404;2023-06-26T12:36:23;8.43;;;6.50;;
16766;SDS011;8501;49.926;8.404;2023-06-26T12:38:49;8.18;;;5.65;;
16766;SDS011;8501;49.926;8.404;2023-06-26T12:41:15;6.45;;;5.43;;
16766;SDS011;8501;49.926;8.404;2023-06-26T12:43:41;6.82;;;5.63;;
16766;SDS011;8501;49.926;8.404;2023-06-26T12:46:07;8.95;;;5.40;;
16766;SDS011;8501;49.926;8.404;2023-06-26T12:48:43;5.22;;;4.65;;
16766;SDS011;8501;49.926;8.404;2023-06-26T12:51:11;7.47;;;4.53;;
16766;SDS011;8501;49.926;8.404;2023-06-26T12:53:39;6.75;;;4.88;;
16766;SDS011;8501;49.926;8.404;2023-06-26T12:56:05;5.65;;;4.50;;
16766;SDS011;8501;49.926;8.404;2023-06-26T12:58:32;5.70;;;4.57;;
16766;SDS011;8501;49.926;8.404;2023-06-26T13:00:58;7.30;;;4.18;;
16766;SDS011;8501;49.926;8.404;2023-06-26T13:03:24;5.93;;;4.22;;
16766;SDS011;8501;49.926;8.404;2023-06-26T13:05:49;5.07;;;4.05;;
16766;SDS011;8501;49.926;8.404;2023-06-26T13:08:15;7.70;;;3.90;;
16766;SDS011;8501;49.926;8.404;2023-06-26T13:10:42;7.28;;;5.18;;
16766;SDS011;8501;49.926;8.404;2023-06-26T13:13:09;7.15;;;5.47;;
16766;SDS011;8501;49.926;8.404;2023-06-26T13:15:35;6.95;;;5.40;;
16766;SDS011;8501;49.926;8.404;2023-06-26T13:18:01;6.25;;;5.55;;
16766;SDS011;8501;49.926;8.404;2023-06-26T13:20:26;5.70;;;5.10;;
16766;SDS011;8501;49.926;8.404;2023-06-26T13:22:52;6.72;;;5.22;;
16766;SDS011;8501;49.926;8.404;2023-06-26T13:25:19;6.82;;;5.53;;
16766;SDS011;8501;49.926;8.404;2023-06-26T13:27:45;6.65;;;5.72;;
16766;SDS011;8501;49.926;8.404;2023-06-26T13:30:11;5.63;;;5.00;;
16766;SDS011;8501;49.926;8.404;2023-06-26T13:32:37;7.15;;;5.78;;
16766;SDS011;8501;49.926;8.404;2023-06-26T13:35:02;6.88;;;5.65;;
16766;SDS011;8501;49.926;8.404;2023-06-26T13:37:28;7.80;;;5.28;;
16766;SDS011;8501;49.926;8.404;2023-06-26T13:39:54;10.38;;;6.22;;
16766;SDS011;8501;49.926;8.404;2023-06-26T13:42:19;6.75;;;5.28;;
16766;SDS011;8501;49.926;8.404;2023-06-26T13:44:45;6.80;;;5.45;;
16766;SDS011;8501;49.926;8.404;2023-06-26T13:47:12;7.75;;;5.40;;
16766;SDS011;8501;49.926;8.404;2023-06-26T13:49:38;6.35;;;5.00;;
16766;SDS011;8501;49.926;8.404;2023-06-26T13:52:04;6.82;;;5.75;;
16766;SDS011;8501;49.926;8.404;2023-06-26T13:54:32;6.43;;;5.28;;
16766;SDS011;8501;49.926;8.404;2023-06-26T13:56:59;8.77;;;5.95;;
16766;SDS011;8501;49.926;8.404;2023-06-26T13:59:26;8.35;;;5.45;;
16766;SDS011;8501;49.926;8.404;2023-06-26T14:01:52;7.78;;;5.20;;
16766;SDS011;8501;49.926;8.404;2023-06-26T14:04:17;6.03;;;4.68;;
16766;SDS011;8501;49.926;8.404;2023-06-26T14:06:43;5.60;;;3.92;;
16766;SDS011;8501;49.926;8.404;2023-06-26T14:09:10;5.10;;;3.42;;
16766;SDS011;8501;49.926;8.404;2023-06-26T14:11:36;4.50;;;3.15;;
16766;SDS011;8501;49.926;8.404;2023-06-26T14:14:01;5.47;;;3.53;;
16766;SDS011;8501;49.926;8.404;2023-06-26T14:16:27;5.50;;;2.90;;
16766;SDS011;8501;49.926;8.404;2023-06-26T14:18:53;5.38;;;3.10;;
16766;SDS011;8501;49.926;8.404;2023-06-26T14:21:19;5.47;;;3.20;;
16766;SDS011;8501;49.926;8.404;2023-06-26T14:23:45;3.85;;;3.10;;
16766;SDS011;8501;49.926;8.404;2023-06-26T14:26:10;5.05;;;3.03;;
16766;SDS011;8501;49.926;8.404;2023-06-26T14:28:36;4.22;;;2.80;;
16766;SDS011;8501;49.926;8.404;2023-06-26T14:31:02;4.30;;;2.65;;
16766;SDS011;8501;49.926;8.404;2023-06-26T14:33:28;7.22;;;3.20;;
16766;SDS011;8501;49.926;8.404;2023-06-26T14:35:53;5.18;;;3.50;;
16766;SDS011;8501;49.926;8.404;2023-06-26T14:38:19;5.93;;;2.78;;
16766;SDS011;8501;49.926;8.404;2023-06-26T14:40:45;5.38;;;3.10;;
16766;SDS011;8501;49.926;8.404;2023-06-26T14:43:10;3.15;;;2.80;;
16766;SDS011;8501;49.926;8.404;2023-06-26T14:45:36;3.78;;;3.00;;
16766;SDS011;8501;49.926;8.404;2023-06-26T14:48:01;5.32;;;3.20;;
16766;SDS011;8501;49.926;8.404;2023-06-26T14:50:27;5.78;;;3.63;;
16766;SDS011;8501;49.926;8.404;2023-06-26T14:52:52;5.95;;;3.30;;
16766;SDS011;8501;49.926;8.404;2023-06-26T14:55:18;5.75;;;3.60;;
16766;SDS011;8501;49.926;8.404;2023-06-26T14:57:43;7.40;;;3.83;;
16766;SDS011;8501;49.926;8.404;2023-06-26T15:00:10;5.70;;;3.60;;
16766;SDS011;8501;49.926;8.404;2023-06-26T15:02:36;5.25;;;3.40;;
16766;SDS011;8501;49.926;8.404;2023-06-26T15:05:01;6.63;;;3.38;;